Airfield :
LOGIN :

Register | Disclaimer

   EN    FR    IT 

 










Legend :    VFR   Marginal VFR   IFR   Intensive IFR   Very Intensive IFR
Visi :
Ceiling :
>= 8 km
>= 3000ft
5 to 8 km
1000 to 3000 ft
1500m to 5 km
500 to 1000 ft
800 to 1500m
200 to 500 ft
< 800m
< 200 ft
Symbols :   Thunderstorms  Fog  Heavy snow  Heavy precipitations  Wind > 20 kt
SIGMETs :     Misc.  Thunderstorms  Icing  Turbulence  Mountain Waves  Volcanic Ashes






- Airport Elevation : 359 ft
- IATA code : BVA


LFOB - Beauvais

CURRENT METAR :
  • 301400Z AUTO 01005KT 330V040 9999 OVC007 07/05 Q1024 TEMPO BKN017

EXPIRED METARs :
  • 301330Z AUTO 01005KT 330V030 9999 OVC007 06/05 Q1024 TEMPO BKN017
  • 301300Z AUTO 04005KT 9000 OVC006 06/05 Q1024 TEMPO BKN017
  • 301230Z AUTO 03005KT 350V060 9000 OVC005 06/05 Q1024 TEMPO BKN017
  • 301200Z AUTO 02005KT 8000 OVC005 06/05 Q1024 TEMPO BKN017
  • 301130Z AUTO 04003KT 340V080 8000 OVC005 05/05 Q1024 TEMPO BKN017

TAF TAF LFOB
Valid from the 30 at 12:00 until the 01 at 12:00 UTC


301100Z 3012/0112 03007KT 7000 OVC007
TEMPO 3013/3018 BKN017
PROB30
TEMPO 3020/0109 3000 BR OVC003
ATIS : +33 3 44 11 49 28



MET'MAP, your aeronautical weather chart ! - Copyright ORBIFLY December 2007 - Disclaimer

ORBIFLY MET'MAP TEAM :

Programming & Development : Alexandra Zaïnal
Original concept : Baudouin d'Aumeries
Technical & hardware support : Manuel Goepfert
Assistance : Marc-Olivier Méhu




SOURCES & CREDITS :

   NOAA